sensor_id;sensor_type;location;lat;lon;timestamp;temperature;humidity
6164;DHT22;3114;48.362;10.994;2022-10-29T00:00:51;17.00;99.90
6164;DHT22;3114;48.362;10.994;2022-10-29T00:03:19;17.00;99.90
6164;DHT22;3114;48.362;10.994;2022-10-29T00:05:54;17.00;99.90
6164;DHT22;3114;48.362;10.994;2022-10-29T00:08:22;16.80;99.90
6164;DHT22;3114;48.362;10.994;2022-10-29T00:10:49;16.70;99.90
6164;DHT22;3114;48.362;10.994;2022-10-29T00:13:24;16.60;99.90
6164;DHT22;3114;48.362;10.994;2022-10-29T00:15:51;16.50;99.90
6164;DHT22;3114;48.362;10.994;2022-10-29T00:18:17;16.60;99.90
6164;DHT22;3114;48.362;10.994;2022-10-29T00:20:45;16.50;99.90
6164;DHT22;3114;48.362;10.994;2022-10-29T00:23:12;16.50;99.90
6164;DHT22;3114;48.362;10.994;2022-10-29T00:25:39;16.60;99.90
6164;DHT22;3114;48.362;10.994;2022-10-29T00:28:06;16.60;99.90
6164;DHT22;3114;48.362;10.994;2022-10-29T00:30:35;16.60;99.90
6164;DHT22;3114;48.362;10.994;2022-10-29T00:33:02;16.50;99.90
6164;DHT22;3114;48.362;10.994;2022-10-29T00:35:29;16.40;99.90
6164;DHT22;3114;48.362;10.994;2022-10-29T00:37:55;16.50;99.90
6164;DHT22;3114;48.362;10.994;2022-10-29T00:40:22;16.50;99.90
6164;DHT22;3114;48.362;10.994;2022-10-29T00:42:49;16.50;99.90
6164;DHT22;3114;48.362;10.994;2022-10-29T00:45:18;16.40;99.90
6164;DHT22;3114;48.362;10.994;2022-10-29T00:47:50;16.40;99.90
6164;DHT22;3114;48.362;10.994;2022-10-29T00:50:18;16.40;99.90
6164;DHT22;3114;48.362;10.994;2022-10-29T00:52:47;16.40;99.90
6164;DHT22;3114;48.362;10.994;2022-10-29T00:55:16;16.50;99.90
6164;DHT22;3114;48.362;10.994;2022-10-29T00:57:47;16.50;99.90
6164;DHT22;3114;48.362;10.994;2022-10-29T01:00:16;16.60;99.90
6164;DHT22;3114;48.362;10.994;2022-10-29T01:02:43;16.50;99.90
6164;DHT22;3114;48.362;10.994;2022-10-29T01:05:14;16.40;99.90
6164;DHT22;3114;48.362;10.994;2022-10-29T01:07:42;16.40;99.90
6164;DHT22;3114;48.362;10.994;2022-10-29T01:10:09;16.40;99.90
6164;DHT22;3114;48.362;10.994;2022-10-29T01:12:57;16.50;99.90
6164;DHT22;3114;48.362;10.994;2022-10-29T01:15:33;16.70;99.90
6164;DHT22;3114;48.362;10.994;2022-10-29T01:18:11;16.80;99.90
6164;DHT22;3114;48.362;10.994;2022-10-29T01:21:06;16.80;99.90
6164;DHT22;3114;48.362;10.994;2022-10-29T01:23:49;17.00;99.90
6164;DHT22;3114;48.362;10.994;2022-10-29T01:29:33;16.80;99.90
6164;DHT22;3114;48.362;10.994;2022-10-29T01:32:05;16.80;99.90
6164;DHT22;3114;48.362;10.994;2022-10-29T01:34:39;16.60;99.90
6164;DHT22;3114;48.362;10.994;2022-10-29T01:37:13;16.30;99.90
6164;DHT22;3114;48.362;10.994;2022-10-29T01:39:51;16.30;99.90
6164;DHT22;3114;48.362;10.994;2022-10-29T01:42:25;16.20;99.90
6164;DHT22;3114;48.362;10.994;2022-10-29T01:44:57;16.20;99.90
6164;DHT22;3114;48.362;10.994;2022-10-29T01:47:31;16.20;99.90
6164;DHT22;3114;48.362;10.994;2022-10-29T01:50:05;16.10;99.90
6164;DHT22;3114;48.362;10.994;2022-10-29T01:52:34;16.20;99.90
6164;DHT22;3114;48.362;10.994;2022-10-29T01:55:01;16.30;99.90
6164;DHT22;3114;48.362;10.994;2022-10-29T01:57:31;16.50;99.90
6164;DHT22;3114;48.362;10.994;2022-10-29T02:00:00;16.50;99.90
6164;DHT22;3114;48.362;10.994;2022-10-29T02:02:41;16.60;99.90
6164;DHT22;3114;48.362;10.994;2022-10-29T02:05:16;16.70;99.90
6164;DHT22;3114;48.362;10.994;2022-10-29T02:07:49;16.80;99.90
6164;DHT22;3114;48.362;10.994;2022-10-29T02:10:22;16.80;99.90
6164;DHT22;3114;48.362;10.994;2022-10-29T02:12:52;16.80;99.90
6164;DHT22;3114;48.362;10.994;2022-10-29T02:15:23;16.80;99.90
6164;DHT22;3114;48.362;10.994;2022-10-29T02:17:56;16.70;99.90
6164;DHT22;3114;48.362;10.994;2022-10-29T02:20:24;16.70;99.90
6164;DHT22;3114;48.362;10.994;2022-10-29T02:22:51;16.60;99.90
6164;DHT22;3114;48.362;10.994;2022-10-29T02:25:18;16.50;99.90
6164;DHT22;3114;48.362;10.994;2022-10-29T02:27:45;16.30;99.90
6164;DHT22;3114;48.362;10.994;2022-10-29T02:30:12;16.40;99.90
6164;DHT22;3114;48.362;10.994;2022-10-29T02:32:38;16.30;99.90
6164;DHT22;3114;48.362;10.994;2022-10-29T02:35:07;16.30;99.90
6164;DHT22;3114;48.362;10.994;2022-10-29T02:37:34;16.40;99.90
6164;DHT22;3114;48.362;10.994;2022-10-29T02:40:01;16.20;99.90
6164;DHT22;3114;48.362;10.994;2022-10-29T02:42:28;16.10;99.90
6164;DHT22;3114;48.362;10.994;2022-10-29T02:44:55;16.00;99.90
6164;DHT22;3114;48.362;10.994;2022-10-29T02:47:22;16.00;99.90
6164;DHT22;3114;48.362;10.994;2022-10-29T02:49:49;16.00;99.90
6164;DHT22;3114;48.362;10.994;2022-10-29T02:52:17;16.10;99.90
6164;DHT22;3114;48.362;10.994;2022-10-29T02:54:43;16.20;99.90
6164;DHT22;3114;48.362;10.994;2022-10-29T02:57:10;16.30;99.90
6164;DHT22;3114;48.362;10.994;2022-10-29T02:59:37;16.40;99.90
6164;DHT22;3114;48.362;10.994;2022-10-29T03:02:04;16.50;99.90
6164;DHT22;3114;48.362;10.994;2022-10-29T03:04:31;16.60;99.90
6164;DHT22;3114;48.362;10.994;2022-10-29T03:06:58;16.60;99.90
6164;DHT22;3114;48.362;10.994;2022-10-29T03:09:26;16.60;99.90
6164;DHT22;3114;48.362;10.994;2022-10-29T03:11:53;16.60;99.90
6164;DHT22;3114;48.362;10.994;2022-10-29T03:14:20;16.60;99.90
6164;DHT22;3114;48.362;10.994;2022-10-29T03:16:50;16.60;99.90
6164;DHT22;3114;48.362;10.994;2022-10-29T03:19:16;16.60;99.90
6164;DHT22;3114;48.362;10.994;2022-10-29T03:21:43;16.60;99.90
6164;DHT22;3114;48.362;10.994;2022-10-29T03:24:10;16.60;99.90
6164;DHT22;3114;48.362;10.994;2022-10-29T03:26:39;16.70;99.90
6164;DHT22;3114;48.362;10.994;2022-10-29T03:29:05;16.70;99.90
6164;DHT22;3114;48.362;10.994;2022-10-29T03:31:32;16.60;99.90
6164;DHT22;3114;48.362;10.994;2022-10-29T03:33:59;16.60;99.90
6164;DHT22;3114;48.362;10.994;2022-10-29T03:36:26;16.60;99.90
6164;DHT22;3114;48.362;10.994;2022-10-29T03:38:53;16.60;99.90
6164;DHT22;3114;48.362;10.994;2022-10-29T03:41:20;16.60;99.90
6164;DHT22;3114;48.362;10.994;2022-10-29T03:43:48;16.60;99.90
6164;DHT22;3114;48.362;10.994;2022-10-29T03:46:15;16.60;99.90
6164;DHT22;3114;48.362;10.994;2022-10-29T03:48:42;16.40;99.90
6164;DHT22;3114;48.362;10.994;2022-10-29T03:51:09;16.50;99.90
6164;DHT22;3114;48.362;10.994;2022-10-29T03:53:36;16.50;99.90
6164;DHT22;3114;48.362;10.994;2022-10-29T03:56:03;16.50;99.90
6164;DHT22;3114;48.362;10.994;2022-10-29T03:58:31;16.40;99.90
6164;DHT22;3114;48.362;10.994;2022-10-29T04:01:01;16.40;99.90
6164;DHT22;3114;48.362;10.994;2022-10-29T04:03:31;16.40;99.90
6164;DHT22;3114;48.362;10.994;2022-10-29T04:05:59;16.40;99.90
6164;DHT22;3114;48.362;10.994;2022-10-29T04:08:27;16.40;99.90
6164;DHT22;3114;48.362;10.994;2022-10-29T04:10:53;16.40;99.90
6164;DHT22;3114;48.362;10.994;2022-10-29T04:13:20;16.30;99.90
6164;DHT22;3114;48.362;10.994;2022-10-29T04:15:47;16.40;99.90
6164;DHT22;3114;48.362;10.994;2022-10-29T04:18:15;16.30;99.90
6164;DHT22;3114;48.362;10.994;2022-10-29T04:20:42;16.30;99.90
6164;DHT22;3114;48.362;10.994;2022-10-29T04:23:09;16.30;99.90
6164;DHT22;3114;48.362;10.994;2022-10-29T04:25:36;16.30;99.90
6164;DHT22;3114;48.362;10.994;2022-10-29T04:28:03;16.40;99.90
6164;DHT22;3114;48.362;10.994;2022-10-29T04:30:30;16.40;99.90
6164;DHT22;3114;48.362;10.994;2022-10-29T04:32:57;16.40;99.90
6164;DHT22;3114;48.362;10.994;2022-10-29T04:35:26;16.40;99.90
6164;DHT22;3114;48.362;10.994;2022-10-29T04:37:54;16.40;99.90
6164;DHT22;3114;48.362;10.994;2022-10-29T04:40:21;16.20;99.90
6164;DHT22;3114;48.362;10.994;2022-10-29T04:42:49;16.30;99.90
6164;DHT22;3114;48.362;10.994;2022-10-29T04:45:17;16.10;99.90
6164;DHT22;3114;48.362;10.994;2022-10-29T04:47:44;16.10;99.90
6164;DHT22;3114;48.362;10.994;2022-10-29T04:50:11;16.20;99.90
6164;DHT22;3114;48.362;10.994;2022-10-29T04:52:39;16.10;99.90
6164;DHT22;3114;48.362;10.994;2022-10-29T04:55:07;16.20;99.90
6164;DHT22;3114;48.362;10.994;2022-10-29T04:57:34;16.20;99.90
6164;DHT22;3114;48.362;10.994;2022-10-29T05:00:01;16.30;99.90
6164;DHT22;3114;48.362;10.994;2022-10-29T05:02:27;16.30;99.90
6164;DHT22;3114;48.362;10.994;2022-10-29T05:04:54;16.40;99.90
6164;DHT22;3114;48.362;10.994;2022-10-29T05:07:21;16.40;99.90
6164;DHT22;3114;48.362;10.994;2022-10-29T05:09:49;16.40;99.90
6164;DHT22;3114;48.362;10.994;2022-10-29T05:12:16;16.40;99.90
6164;DHT22;3114;48.362;10.994;2022-10-29T05:14:43;16.50;99.90
6164;DHT22;3114;48.362;10.994;2022-10-29T05:17:10;16.50;99.90
6164;DHT22;3114;48.362;10.994;2022-10-29T05:19:45;16.50;99.90
6164;DHT22;3114;48.362;10.994;2022-10-29T05:22:11;16.50;99.90
6164;DHT22;3114;48.362;10.994;2022-10-29T05:24:38;16.50;99.90
6164;DHT22;3114;48.362;10.994;2022-10-29T05:27:07;16.50;99.90
6164;DHT22;3114;48.362;10.994;2022-10-29T05:29:34;16.50;99.90
6164;DHT22;3114;48.362;10.994;2022-10-29T05:32:00;16.50;99.90
6164;DHT22;3114;48.362;10.994;2022-10-29T05:34:27;16.50;99.90
6164;DHT22;3114;48.362;10.994;2022-10-29T05:36:54;16.50;99.90
6164;DHT22;3114;48.362;10.994;2022-10-29T05:39:21;16.60;99.90
6164;DHT22;3114;48.362;10.994;2022-10-29T05:41:48;16.50;99.90
6164;DHT22;3114;48.362;10.994;2022-10-29T05:44:16;16.40;99.90
6164;DHT22;3114;48.362;10.994;2022-10-29T05:46:43;16.30;99.90
6164;DHT22;3114;48.362;10.994;2022-10-29T05:49:10;16.40;99.90
6164;DHT22;3114;48.362;10.994;2022-10-29T05:51:38;16.50;99.90
6164;DHT22;3114;48.362;10.994;2022-10-29T05:54:05;16.40;99.90
6164;DHT22;3114;48.362;10.994;2022-10-29T05:56:31;16.10;99.90
6164;DHT22;3114;48.362;10.994;2022-10-29T05:58:58;16.00;99.90
6164;DHT22;3114;48.362;10.994;2022-10-29T06:01:27;15.90;99.90
6164;DHT22;3114;48.362;10.994;2022-10-29T06:03:53;15.90;99.90
6164;DHT22;3114;48.362;10.994;2022-10-29T06:06:24;15.90;99.90
6164;DHT22;3114;48.362;10.994;2022-10-29T06:08:51;16.10;99.90
6164;DHT22;3114;48.362;10.994;2022-10-29T06:11:18;16.20;99.90
6164;DHT22;3114;48.362;10.994;2022-10-29T06:13:45;16.40;99.90
6164;DHT22;3114;48.362;10.994;2022-10-29T06:16:12;16.40;99.90
6164;DHT22;3114;48.362;10.994;2022-10-29T06:18:40;16.40;99.90
6164;DHT22;3114;48.362;10.994;2022-10-29T06:21:07;16.20;99.90
6164;DHT22;3114;48.362;10.994;2022-10-29T06:23:34;16.30;99.90
6164;DHT22;3114;48.362;10.994;2022-10-29T06:26:01;16.40;99.90
6164;DHT22;3114;48.362;10.994;2022-10-29T06:28:28;16.30;99.90
6164;DHT22;3114;48.362;10.994;2022-10-29T06:30:55;16.40;99.90
6164;DHT22;3114;48.362;10.994;2022-10-29T06:33:22;16.40;99.90
6164;DHT22;3114;48.362;10.994;2022-10-29T06:35:50;16.40;99.90
6164;DHT22;3114;48.362;10.994;2022-10-29T06:38:17;16.50;99.90
6164;DHT22;3114;48.362;10.994;2022-10-29T06:40:50;16.50;99.90
6164;DHT22;3114;48.362;10.994;2022-10-29T06:43:18;16.60;99.90
6164;DHT22;3114;48.362;10.994;2022-10-29T06:45:45;16.60;99.90
6164;DHT22;3114;48.362;10.994;2022-10-29T06:48:11;16.70;99.90
6164;DHT22;3114;48.362;10.994;2022-10-29T06:50:41;16.70;99.90
6164;DHT22;3114;48.362;10.994;2022-10-29T06:53:12;16.70;99.90
6164;DHT22;3114;48.362;10.994;2022-10-29T06:55:39;16.70;99.90
6164;DHT22;3114;48.362;10.994;2022-10-29T06:58:11;16.80;99.90
6164;DHT22;3114;48.362;10.994;2022-10-29T07:00:38;16.80;99.90
6164;DHT22;3114;48.362;10.994;2022-10-29T07:03:05;16.80;99.90
6164;DHT22;3114;48.362;10.994;2022-10-29T07:05:35;16.80;99.90
6164;DHT22;3114;48.362;10.994;2022-10-29T07:08:03;16.80;99.90
6164;DHT22;3114;48.362;10.994;2022-10-29T07:10:32;16.70;99.90
6164;DHT22;3114;48.362;10.994;2022-10-29T07:12:59;16.80;99.90
6164;DHT22;3114;48.362;10.994;2022-10-29T07:15:26;16.90;99.90
6164;DHT22;3114;48.362;10.994;2022-10-29T07:17:54;16.90;99.90
6164;DHT22;3114;48.362;10.994;2022-10-29T07:20:21;17.00;99.90
6164;DHT22;3114;48.362;10.994;2022-10-29T07:22:48;17.10;99.90
6164;DHT22;3114;48.362;10.994;2022-10-29T07:25:15;16.90;99.90
6164;DHT22;3114;48.362;10.994;2022-10-29T07:27:44;16.80;99.90
6164;DHT22;3114;48.362;10.994;2022-10-29T07:30:11;16.90;99.90
6164;DHT22;3114;48.362;10.994;2022-10-29T07:32:38;17.00;99.90
6164;DHT22;3114;48.362;10.994;2022-10-29T07:35:05;16.80;99.90
6164;DHT22;3114;48.362;10.994;2022-10-29T07:37:32;16.70;99.90
6164;DHT22;3114;48.362;10.994;2022-10-29T07:39:59;16.50;99.90
6164;DHT22;3114;48.362;10.994;2022-10-29T07:42:26;16.70;99.90
6164;DHT22;3114;48.362;10.994;2022-10-29T07:45:00;16.70;99.90
6164;DHT22;3114;48.362;10.994;2022-10-29T07:47:27;16.90;99.90
6164;DHT22;3114;48.362;10.994;2022-10-29T07:49:54;17.00;99.90
6164;DHT22;3114;48.362;10.994;2022-10-29T07:52:21;17.10;99.90
6164;DHT22;3114;48.362;10.994;2022-10-29T07:54:48;17.30;99.90
6164;DHT22;3114;48.362;10.994;2022-10-29T07:57:15;17.30;99.90
6164;DHT22;3114;48.362;10.994;2022-10-29T07:59:43;17.40;99.90
6164;DHT22;3114;48.362;10.994;2022-10-29T08:02:12;17.50;99.90
6164;DHT22;3114;48.362;10.994;2022-10-29T08:04:39;17.60;99.90
6164;DHT22;3114;48.362;10.994;2022-10-29T08:07:06;17.60;99.90
6164;DHT22;3114;48.362;10.994;2022-10-29T08:09:33;17.50;99.90
6164;DHT22;3114;48.362;10.994;2022-10-29T08:12:05;17.60;99.90
6164;DHT22;3114;48.362;10.994;2022-10-29T08:14:32;17.50;99.90
6164;DHT22;3114;48.362;10.994;2022-10-29T08:16:59;17.60;99.90
6164;DHT22;3114;48.362;10.994;2022-10-29T08:19:27;17.60;99.90
6164;DHT22;3114;48.362;10.994;2022-10-29T08:21:55;17.60;99.90
6164;DHT22;3114;48.362;10.994;2022-10-29T08:24:22;17.60;99.90
6164;DHT22;3114;48.362;10.994;2022-10-29T08:26:49;17.30;99.90
6164;DHT22;3114;48.362;10.994;2022-10-29T08:29:16;17.20;99.90
6164;DHT22;3114;48.362;10.994;2022-10-29T08:31:43;17.20;99.90
6164;DHT22;3114;48.362;10.994;2022-10-29T08:34:11;17.20;99.90
6164;DHT22;3114;48.362;10.994;2022-10-29T08:36:40;17.30;99.90
6164;DHT22;3114;48.362;10.994;2022-10-29T08:39:07;17.30;99.90
6164;DHT22;3114;48.362;10.994;2022-10-29T08:41:40;17.60;99.90
6164;DHT22;3114;48.362;10.994;2022-10-29T08:47:07;18.00;99.90
6164;DHT22;3114;48.362;10.994;2022-10-29T08:49:38;18.00;99.90
6164;DHT22;3114;48.362;10.994;2022-10-29T08:52:12;18.00;99.90
6164;DHT22;3114;48.362;10.994;2022-10-29T08:54:59;18.00;99.90
6164;DHT22;3114;48.362;10.994;2022-10-29T08:57:32;18.10;99.90
6164;DHT22;3114;48.362;10.994;2022-10-29T09:00:04;18.20;99.90
6164;DHT22;3114;48.362;10.994;2022-10-29T09:02:31;18.30;99.90
6164;DHT22;3114;48.362;10.994;2022-10-29T09:04:59;18.40;99.90
6164;DHT22;3114;48.362;10.994;2022-10-29T09:07:55;18.50;99.90
6164;DHT22;3114;48.362;10.994;2022-10-29T09:10:34;18.30;99.90
6164;DHT22;3114;48.362;10.994;2022-10-29T09:13:24;18.50;99.90
6164;DHT22;3114;48.362;10.994;2022-10-29T09:16:18;18.40;99.90
6164;DHT22;3114;48.362;10.994;2022-10-29T09:19:02;18.40;99.90
6164;DHT22;3114;48.362;10.994;2022-10-29T09:21:33;18.60;99.90
6164;DHT22;3114;48.362;10.994;2022-10-29T09:24:17;18.60;99.90
6164;DHT22;3114;48.362;10.994;2022-10-29T09:26:57;18.60;99.90
6164;DHT22;3114;48.362;10.994;2022-10-29T09:29:38;18.60;99.90
6164;DHT22;3114;48.362;10.994;2022-10-29T09:32:14;18.60;99.90
6164;DHT22;3114;48.362;10.994;2022-10-29T09:34:45;18.60;99.90
6164;DHT22;3114;48.362;10.994;2022-10-29T09:37:15;18.70;99.90
6164;DHT22;3114;48.362;10.994;2022-10-29T09:39:45;18.80;99.90
6164;DHT22;3114;48.362;10.994;2022-10-29T09:42:15;18.80;99.90
6164;DHT22;3114;48.362;10.994;2022-10-29T09:44:49;18.90;99.90
6164;DHT22;3114;48.362;10.994;2022-10-29T09:47:30;19.00;99.90
6164;DHT22;3114;48.362;10.994;2022-10-29T09:50:11;19.10;99.90
6164;DHT22;3114;48.362;10.994;2022-10-29T09:52:41;19.20;99.90
6164;DHT22;3114;48.362;10.994;2022-10-29T09:55:17;19.30;99.90
6164;DHT22;3114;48.362;10.994;2022-10-29T09:57:46;19.40;99.90
6164;DHT22;3114;48.362;10.994;2022-10-29T10:00:18;19.50;99.90
6164;DHT22;3114;48.362;10.994;2022-10-29T10:02:49;19.60;99.90
6164;DHT22;3114;48.362;10.994;2022-10-29T10:05:24;19.60;99.90
6164;DHT22;3114;48.362;10.994;2022-10-29T10:08:09;19.70;99.90
6164;DHT22;3114;48.362;10.994;2022-10-29T10:10:48;19.80;99.90
6164;DHT22;3114;48.362;10.994;2022-10-29T10:13:17;19.90;99.90
6164;DHT22;3114;48.362;10.994;2022-10-29T10:15:50;19.90;99.90
6164;DHT22;3114;48.362;10.994;2022-10-29T10:18:20;20.00;99.90
6164;DHT22;3114;48.362;10.994;2022-10-29T10:21:00;20.00;99.90
6164;DHT22;3114;48.362;10.994;2022-10-29T10:23:38;20.00;99.90
6164;DHT22;3114;48.362;10.994;2022-10-29T10:26:30;20.10;99.90
6164;DHT22;3114;48.362;10.994;2022-10-29T10:29:13;20.10;99.90
6164;DHT22;3114;48.362;10.994;2022-10-29T10:31:43;20.10;99.90
6164;DHT22;3114;48.362;10.994;2022-10-29T10:34:16;20.20;99.90
6164;DHT22;3114;48.362;10.994;2022-10-29T10:36:47;20.30;99.90
6164;DHT22;3114;48.362;10.994;2022-10-29T10:39:24;20.40;99.90
6164;DHT22;3114;48.362;10.994;2022-10-29T10:41:55;20.60;99.90
6164;DHT22;3114;48.362;10.994;2022-10-29T10:44:23;20.50;99.90
6164;DHT22;3114;48.362;10.994;2022-10-29T10:46:52;20.50;99.90
6164;DHT22;3114;48.362;10.994;2022-10-29T10:49:29;20.60;99.90
6164;DHT22;3114;48.362;10.994;2022-10-29T10:51:58;20.70;99.90
6164;DHT22;3114;48.362;10.994;2022-10-29T10:54:30;20.70;99.90
6164;DHT22;3114;48.362;10.994;2022-10-29T10:57:00;20.90;99.90
6164;DHT22;3114;48.362;10.994;2022-10-29T10:59:45;21.20;99.90
6164;DHT22;3114;48.362;10.994;2022-10-29T11:02:22;21.30;99.90
6164;DHT22;3114;48.362;10.994;2022-10-29T11:04:55;21.50;99.90
6164;DHT22;3114;48.362;10.994;2022-10-29T11:07:24;21.70;99.90
6164;DHT22;3114;48.362;10.994;2022-10-29T11:09:54;21.80;99.90
6164;DHT22;3114;48.362;10.994;2022-10-29T11:12:28;21.80;99.90
6164;DHT22;3114;48.362;10.994;2022-10-29T11:14:59;21.90;99.90
6164;DHT22;3114;48.362;10.994;2022-10-29T11:17:31;22.00;99.90
6164;DHT22;3114;48.362;10.994;2022-10-29T11:20:06;22.10;99.90
6164;DHT22;3114;48.362;10.994;2022-10-29T11:22:41;22.20;99.90
6164;DHT22;3114;48.362;10.994;2022-10-29T11:25:15;22.30;99.90
6164;DHT22;3114;48.362;10.994;2022-10-29T11:27:52;22.30;99.90
6164;DHT22;3114;48.362;10.994;2022-10-29T11:30:21;22.40;99.90
6164;DHT22;3114;48.362;10.994;2022-10-29T11:32:58;22.50;99.90
6164;DHT22;3114;48.362;10.994;2022-10-29T11:35:37;22.60;99.90
6164;DHT22;3114;48.362;10.994;2022-10-29T11:38:09;22.70;99.90
6164;DHT22;3114;48.362;10.994;2022-10-29T11:40:43;22.80;99.90
6164;DHT22;3114;48.362;10.994;2022-10-29T11:43:17;22.90;99.90
6164;DHT22;3114;48.362;10.994;2022-10-29T11:45:56;23.70;99.90
6164;DHT22;3114;48.362;10.994;2022-10-29T11:48:35;24.70;99.90
6164;DHT22;3114;48.362;10.994;2022-10-29T11:51:12;26.60;99.90
6164;DHT22;3114;48.362;10.994;2022-10-29T11:53:54;28.40;99.90
6164;DHT22;3114;48.362;10.994;2022-10-29T11:56:35;29.50;99.90
6164;DHT22;3114;48.362;10.994;2022-10-29T11:59:15;29.30;99.90
6164;DHT22;3114;48.362;10.994;2022-10-29T12:01:52;28.50;99.90
6164;DHT22;3114;48.362;10.994;2022-10-29T12:04:30;28.00;99.90
6164;DHT22;3114;48.362;10.994;2022-10-29T12:07:12;27.90;99.90
6164;DHT22;3114;48.362;10.994;2022-10-29T12:12:35;28.20;99.90
6164;DHT22;3114;48.362;10.994;2022-10-29T12:15:14;28.80;99.90
6164;DHT22;3114;48.362;10.994;2022-10-29T12:17:47;29.50;99.90
6164;DHT22;3114;48.362;10.994;2022-10-29T12:20:18;30.20;99.90
6164;DHT22;3114;48.362;10.994;2022-10-29T12:22:51;30.60;99.90
6164;DHT22;3114;48.362;10.994;2022-10-29T12:25:29;30.60;99.90
6164;DHT22;3114;48.362;10.994;2022-10-29T12:28:08;30.50;99.90
6164;DHT22;3114;48.362;10.994;2022-10-29T12:30:51;30.50;99.90
6164;DHT22;3114;48.362;10.994;2022-10-29T12:33:23;30.70;99.90
6164;DHT22;3114;48.362;10.994;2022-10-29T12:35:54;31.20;99.90
6164;DHT22;3114;48.362;10.994;2022-10-29T12:38:33;31.80;99.90
6164;DHT22;3114;48.362;10.994;2022-10-29T12:41:04;32.60;99.90
6164;DHT22;3114;48.362;10.994;2022-10-29T12:43:34;32.60;99.90
6164;DHT22;3114;48.362;10.994;2022-10-29T12:46:11;32.40;99.90
6164;DHT22;3114;48.362;10.994;2022-10-29T12:48:48;32.00;99.90
6164;DHT22;3114;48.362;10.994;2022-10-29T12:51:20;31.70;99.90
6164;DHT22;3114;48.362;10.994;2022-10-29T12:54:03;31.00;99.90
6164;DHT22;3114;48.362;10.994;2022-10-29T12:56:36;30.30;99.90
6164;DHT22;3114;48.362;10.994;2022-10-29T13:02:29;29.10;99.90
6164;DHT22;3114;48.362;10.994;2022-10-29T13:05:16;28.40;99.90
6164;DHT22;3114;48.362;10.994;2022-10-29T13:08:09;28.10;99.90
6164;DHT22;3114;48.362;10.994;2022-10-29T13:10:53;28.00;99.90
6164;DHT22;3114;48.362;10.994;2022-10-29T13:13:35;28.10;99.90
6164;DHT22;3114;48.362;10.994;2022-10-29T13:16:06;28.00;99.90
6164;DHT22;3114;48.362;10.994;2022-10-29T13:18:52;27.80;99.90
6164;DHT22;3114;48.362;10.994;2022-10-29T13:21:54;27.60;99.90
6164;DHT22;3114;48.362;10.994;2022-10-29T13:24:21;27.30;99.90
6164;DHT22;3114;48.362;10.994;2022-10-29T13:27:03;26.90;99.90
6164;DHT22;3114;48.362;10.994;2022-10-29T13:29:42;26.70;99.90
6164;DHT22;3114;48.362;10.994;2022-10-29T13:32:31;26.40;99.90
6164;DHT22;3114;48.362;10.994;2022-10-29T13:35:00;26.10;99.90
6164;DHT22;3114;48.362;10.994;2022-10-29T13:37:49;25.80;99.90
6164;DHT22;3114;48.362;10.994;2022-10-29T13:43:26;25.80;99.90
6164;DHT22;3114;48.362;10.994;2022-10-29T13:48:44;25.50;99.90
6164;DHT22;3114;48.362;10.994;2022-10-29T13:51:17;25.40;99.90
6164;DHT22;3114;48.362;10.994;2022-10-29T13:53:51;25.30;99.90
6164;DHT22;3114;48.362;10.994;2022-10-29T13:56:21;25.30;99.90
6164;DHT22;3114;48.362;10.994;2022-10-29T13:58:52;25.10;99.90
6164;DHT22;3114;48.362;10.994;2022-10-29T14:01:21;25.00;99.90
6164;DHT22;3114;48.362;10.994;2022-10-29T14:03:59;25.00;99.90
6164;DHT22;3114;48.362;10.994;2022-10-29T14:06:32;24.60;99.90
6164;DHT22;3114;48.362;10.994;2022-10-29T14:09:09;24.50;99.90
6164;DHT22;3114;48.362;10.994;2022-10-29T14:11:41;24.40;99.90
6164;DHT22;3114;48.362;10.994;2022-10-29T14:14:23;24.20;99.90
6164;DHT22;3114;48.362;10.994;2022-10-29T14:17:08;24.20;99.90
6164;DHT22;3114;48.362;10.994;2022-10-29T14:19:36;24.10;99.90
6164;DHT22;3114;48.362;10.994;2022-10-29T14:22:18;24.00;99.90
6164;DHT22;3114;48.362;10.994;2022-10-29T14:24:47;23.90;99.90
6164;DHT22;3114;48.362;10.994;2022-10-29T14:27:14;23.90;99.90
6164;DHT22;3114;48.362;10.994;2022-10-29T14:29:41;23.80;99.90
6164;DHT22;3114;48.362;10.994;2022-10-29T14:32:12;23.70;99.90
6164;DHT22;3114;48.362;10.994;2022-10-29T14:34:40;23.70;99.90
6164;DHT22;3114;48.362;10.994;2022-10-29T14:37:12;23.60;99.90
6164;DHT22;3114;48.362;10.994;2022-10-29T14:39:43;23.50;99.90
6164;DHT22;3114;48.362;10.994;2022-10-29T14:42:15;23.50;99.90
6164;DHT22;3114;48.362;10.994;2022-10-29T14:44:47;23.50;99.90
6164;DHT22;3114;48.362;10.994;2022-10-29T14:47:24;23.30;99.90
6164;DHT22;3114;48.362;10.994;2022-10-29T14:49:53;23.20;99.90
6164;DHT22;3114;48.362;10.994;2022-10-29T14:52:27;23.10;99.90
6164;DHT22;3114;48.362;10.994;2022-10-29T14:54:58;23.00;99.90
6164;DHT22;3114;48.362;10.994;2022-10-29T14:57:28;22.80;99.90
6164;DHT22;3114;48.362;10.994;2022-10-29T14:59:59;22.80;99.90
6164;DHT22;3114;48.362;10.994;2022-10-29T15:02:32;22.80;99.90
6164;DHT22;3114;48.362;10.994;2022-10-29T15:05:01;22.70;99.90
6164;DHT22;3114;48.362;10.994;2022-10-29T15:07:29;22.70;99.90
6164;DHT22;3114;48.362;10.994;2022-10-29T15:10:16;22.50;99.90
6164;DHT22;3114;48.362;10.994;2022-10-29T15:12:44;22.60;99.90
6164;DHT22;3114;48.362;10.994;2022-10-29T15:15:25;22.60;99.90
6164;DHT22;3114;48.362;10.994;2022-10-29T15:17:55;22.60;99.90
6164;DHT22;3114;48.362;10.994;2022-10-29T15:20:25;22.60;99.90
6164;DHT22;3114;48.362;10.994;2022-10-29T15:22:54;22.50;99.90
6164;DHT22;3114;48.362;10.994;2022-10-29T15:25:28;22.40;99.90
6164;DHT22;3114;48.362;10.994;2022-10-29T15:27:57;22.30;99.90
6164;DHT22;3114;48.362;10.994;2022-10-29T15:30:31;22.20;99.90
6164;DHT22;3114;48.362;10.994;2022-10-29T15:32:59;22.10;99.90
6164;DHT22;3114;48.362;10.994;2022-10-29T15:35:27;22.00;99.90
6164;DHT22;3114;48.362;10.994;2022-10-29T15:37:55;21.90;99.90
6164;DHT22;3114;48.362;10.994;2022-10-29T15:40:24;21.80;99.90
6164;DHT22;3114;48.362;10.994;2022-10-29T15:42:51;21.70;99.90
6164;DHT22;3114;48.362;10.994;2022-10-29T15:45:25;21.60;99.90
6164;DHT22;3114;48.362;10.994;2022-10-29T15:47:55;21.60;99.90
6164;DHT22;3114;48.362;10.994;2022-10-29T15:50:24;21.50;99.90
6164;DHT22;3114;48.362;10.994;2022-10-29T15:52:54;21.40;99.90
6164;DHT22;3114;48.362;10.994;2022-10-29T15:55:25;21.30;99.90
6164;DHT22;3114;48.362;10.994;2022-10-29T15:57:56;21.20;99.90
6164;DHT22;3114;48.362;10.994;2022-10-29T16:00:24;21.10;99.90
6164;DHT22;3114;48.362;10.994;2022-10-29T16:02:52;21.00;99.90
6164;DHT22;3114;48.362;10.994;2022-10-29T16:05:20;20.90;99.90
6164;DHT22;3114;48.362;10.994;2022-10-29T16:07:48;20.80;99.90
6164;DHT22;3114;48.362;10.994;2022-10-29T16:10:17;20.70;99.90
6164;DHT22;3114;48.362;10.994;2022-10-29T16:12:46;20.70;99.90
6164;DHT22;3114;48.362;10.994;2022-10-29T16:15:15;20.60;99.90
6164;DHT22;3114;48.362;10.994;2022-10-29T16:17:42;20.60;99.90
6164;DHT22;3114;48.362;10.994;2022-10-29T16:20:14;20.60;99.90
6164;DHT22;3114;48.362;10.994;2022-10-29T16:22:41;20.60;99.90
6164;DHT22;3114;48.362;10.994;2022-10-29T16:25:20;20.40;99.90
6164;DHT22;3114;48.362;10.994;2022-10-29T16:27:48;20.40;99.90